Andrea — ZDIS8 — position and weather

sailwx.info

Track history (hours):
 
Tides and Currents Weather Stations Pressure Air Temp Water Temp Dewpoint Dewpoint Depression Visibility Wind Speed Wind Dir Waves Ship Positions

Andrea

Last reported at 2017-Sep-22 02:00 UTC. Time now 2017-Sep-23 05:57 UTC.
Position N 50°31' E 000°15'.

Length 134 m; draft 7.6 m.

Type: Ship (hazmat cat B). MMSI: 236481000.

Date/timePositionNaut miles runAvg speedWind from/ knotsBaromVisibWave heightAir tempDewpointWater temp
2017-Sep-22 02:00N 50°31' E 000°15'815.3
2017-Sep-22 01:30N 50°34' E 000°26'714.5
2017-Sep-22 01:00N 50°37' E 000°37'714.0
2017-Sep-22 00:30N 50°41' E 000°46'713.5
2017-Sep-22 00:00N 50°45' E 000°54'713.1
2017-Sep-21 23:30N 50°49' E 001°02'713.1
2017-Sep-21 23:00N 50°54' E 001°10'713.4
2017-Sep-21 22:30N 50°58' E 001°17'714.3
2017-Sep-21 22:00N 51°03' E 001°26'816.3
2017-Sep-21 21:30N 51°08' E 001°36'817.0
2017-Sep-21 21:00N 51°14' E 001°46'816.8
2017-Sep-21 20:30N 51°20' E 001°54'816.4
2017-Sep-21 20:00N 51°27' E 002°01'815.7
2017-Sep-21 19:30N 51°33' E 002°09'815.2
2017-Sep-21 19:00N 51°39' E 002°17'714.8
2017-Sep-21 18:30N 51°44' E 002°25'4313.0
2017-Sep-21 15:13N 52°03' E 003°28'313.8
2017-Sep-21 15:00N 52°04' E 003°33'714.2
2017-Sep-21 14:29N 52°04' E 003°44'613.3
2017-Sep-21 14:00N 52°03' E 003°55'611.5
2017-Sep-21 13:31N 51°60' E 004°02'712.9
2017-Sep-21 13:00N 51°57' E 004°11'612.0
2017-Sep-21 12:30N 51°54' E 004°20'4 7.0
2017-Sep-21 12:00N 51°53' E 004°25'0 0.1
2017-Sep-21 11:30N 51°53' E 004°25'0 0.0
2017-Sep-21 11:00N 51°53' E 004°25'0 0.0
2017-Sep-21 10:30N 51°53' E 004°25'0 0.0
2017-Sep-21 10:00N 51°53' E 004°25'0 0.0
2017-Sep-21 09:30N 51°53' E 004°25'0 0.0
2017-Sep-21 09:00N 51°53' E 004°25'0 0.0
2017-Sep-21 08:30N 51°53' E 004°25'0 0.0
2017-Sep-21 08:00N 51°53' E 004°25'0 0.0
2017-Sep-21 07:30N 51°53' E 004°25'0 0.0
2017-Sep-21 07:00N 51°53' E 004°25'0 0.0
2017-Sep-21 06:30N 51°53' E 004°25'0 0.0
2017-Sep-21 06:00N 51°53' E 004°25'0 0.0
2017-Sep-21 05:30N 51°53' E 004°25'0 0.0
2017-Sep-21 05:00N 51°53' E 004°25'0 0.0
2017-Sep-21 04:30N 51°53' E 004°25'0 0.0
2017-Sep-21 04:00N 51°53' E 004°25'0 0.0
2017-Sep-21 03:30N 51°53' E 004°25'0 0.0
2017-Sep-21 03:00N 51°53' E 004°25'0 0.0
2017-Sep-21 02:30N 51°53' E 004°25'0 0.0
2017-Sep-21 02:00N 51°53' E 004°25'0 0.0
2017-Sep-21 01:30N 51°53' E 004°25'0 0.0
2017-Sep-21 01:00N 51°53' E 004°25'0 0.0
2017-Sep-21 00:30N 51°53' E 004°25'0 0.0
2017-Sep-21 00:00N 51°53' E 004°25'0 0.0
2017-Sep-20 23:30N 51°53' E 004°25'0 0.0
2017-Sep-20 23:00N 51°53' E 004°25'0 0.0
2017-Sep-20 22:30N 51°53' E 004°25'0 0.0
2017-Sep-20 22:00N 51°53' E 004°25'0 0.0
2017-Sep-20 21:30N 51°53' E 004°25'0 0.0
2017-Sep-20 21:00N 51°53' E 004°25'0 0.0
2017-Sep-20 20:30N 51°53' E 004°25'1 1.2
2017-Sep-20 20:01N 51°53' E 004°25'4 8.2
2017-Sep-20 19:30N 51°54' E 004°18'611.8
2017-Sep-20 19:00N 51°57' E 004°10'713.2
2017-Sep-20 18:30N 51°60' E 004°00'815.4
2017-Sep-20 18:00N 51°60' E 003°48'713.4
2017-Sep-20 17:30N 51°58' E 003°37'5414.8
2017-Sep-20 13:51N 51°33' E 002°19'514.7
2017-Sep-20 13:30N 51°29' E 002°15'714.4
2017-Sep-20 13:00N 51°23' E 002°11'714.3
2017-Sep-20 12:30N 51°16' E 002°06'917.4
2017-Sep-20 12:01N 51°11' E 001°55'918.8
2017-Sep-20 11:30N 51°05' E 001°43'11216.3
2017-Sep-20 04:37N 50°10' W 000°51'215.5
2017-Sep-20 04:30N 50°09' W 000°54'715.0
2017-Sep-20 04:00N 50°07' W 001°05'714.4
2017-Sep-20 03:30N 50°05' W 001°15'713.7
2017-Sep-20 03:01N 50°04' W 001°26'713.1
2017-Sep-20 02:31N 50°02' W 001°36'612.5
2017-Sep-20 02:00N 50°01' W 001°45'612.3
2017-Sep-20 01:30N 49°59' W 001°54'612.3
2017-Sep-20 01:00N 49°57' W 002°04'2613.8
2017-Sep-19 23:09N 49°50' W 002°42'215.1
2017-Sep-19 23:00N 49°50' W 002°45'815.5
2017-Sep-19 22:30N 49°47' W 002°56'815.9
2017-Sep-19 22:00N 49°43' W 003°07'816.0
2017-Sep-19 21:29N 49°38' W 003°18'1016.2
2017-Sep-19 20:53N 49°33' W 003°30'4916.6
2017-Sep-19 17:57N 49°09' W 004°36'1817.7
2017-Sep-19 16:57N 49°01' W 004°59'818.0
2017-Sep-19 16:30N 48°57' W 005°10'918.3
2017-Sep-19 16:00N 48°53' W 005°22'2017.6
2017-Sep-19 14:53N 48°38' W 005°42'1718.4
2017-Sep-19 13:58N 48°23' W 005°54'55516.6
2017-Sep-18 04:29N 39°35' W 009°50'817.0
2017-Sep-18 04:00N 39°27' W 009°51'917.1
2017-Sep-18 03:30N 39°18' W 009°51'917.2
2017-Sep-18 03:00N 39°10' W 009°51'917.1
2017-Sep-18 02:30N 39°01' W 009°52'817.0
2017-Sep-18 02:00N 38°53' W 009°51'816.8
2017-Sep-18 01:30N 38°44' W 009°51'816.3
2017-Sep-18 01:00N 38°36' W 009°48'816.7
2017-Sep-18 00:30N 38°28' W 009°45'816.3
2017-Sep-18 00:00N 38°20' W 009°42'816.7
2017-Sep-17 23:30N 38°12' W 009°40'816.6
2017-Sep-17 23:00N 38°04' W 009°37'816.4
2017-Sep-17 22:30N 37°56' W 009°35'816.4
2017-Sep-17 22:00N 37°48' W 009°32'917.0
2017-Sep-17 21:30N 37°40' W 009°30'916.6
2017-Sep-17 20:58N 37°32' W 009°27'816.3
2017-Sep-17 20:30N 37°24' W 009°24'816.2
2017-Sep-17 20:00N 37°16' W 009°23'816.2
2017-Sep-17 19:30N 37°08' W 009°22'815.9
2017-Sep-17 19:00N 37°00' W 009°20'1115.2
2017-Sep-17 18:17N 36°50' W 009°14'516.1
2017-Sep-17 18:00N 36°47' W 009°10'1016.3
2017-Sep-17 17:25N 36°43' W 008°59'715.9
2017-Sep-17 16:58N 36°41' W 008°51'1715.4
2017-Sep-17 15:50N 36°25' W 008°42'615.9
2017-Sep-17 15:28N 36°19' W 008°40'1216.0
2017-Sep-17 14:44N 36°08' W 008°35'416.2
2017-Sep-17 14:30N 36°05' W 008°33'816.3
2017-Sep-17 14:00N 35°57' W 008°30'123 3.1
2017-Sep-15 22:32N 35°54' W 005°59'016.1
2017-Sep-15 22:30N 35°55' W 005°58'1415.3
2017-Sep-15 21:37N 35°57' W 005°42'216.4
2017-Sep-15 21:29N 35°57' W 005°39'715.3
2017-Sep-15 21:01N 35°59' W 005°30'713.8
2017-Sep-15 20:30N 36°03' W 005°23'510.8
2017-Sep-15 20:00N 36°08' W 005°25'0 0.1
2017-Sep-15 13:41N 36°08' W 005°25'0 0.0
2017-Sep-15 13:17N 36°08' W 005°25'0 0.0
2017-Sep-15 12:48N 36°08' W 005°25'2 3.0
2017-Sep-15 12:17N 36°08' W 005°23'0 1.3
2017-Sep-15 12:00N 36°08' W 005°24'611.9
2017-Sep-15 11:30N 36°04' W 005°18'0 0.7
2017-Sep-15 11:00N 36°04' W 005°18'1 2.9
2017-Sep-15 10:30N 36°03' W 005°19'2 3.4
2017-Sep-15 10:01N 36°03' W 005°21'2 3.2
2017-Sep-15 09:30N 36°02' W 005°23'810.6
2017-Sep-15 08:47N 35°57' W 005°30'5713.4
2017-Sep-15 04:33N 35°58' W 006°40'115.3
2017-Sep-15 04:30N 35°59' W 006°41'815.1
2017-Sep-15 03:59N 36°01' W 006°50'4514.7
2017-Sep-15 00:55N 36°13' W 007°44'815.1
2017-Sep-15 00:25N 36°15' W 007°53'714.8
2017-Sep-14 23:55N 36°17' W 008°02'714.9
2017-Sep-14 23:27N 36°18' W 008°11'1814.9
2017-Sep-14 22:13N 36°23' W 008°33'1714.7
2017-Sep-14 21:02N 36°27' W 008°54'015.3
2017-Sep-14 21:00N 36°27' W 008°54'714.9
2017-Sep-14 20:30N 36°29' W 009°03'714.5
2017-Sep-14 20:00N 36°32' W 009°11'714.2
2017-Sep-14 19:30N 36°35' W 009°19'814.8
2017-Sep-14 19:00N 36°40' W 009°26'715.0
2017-Sep-14 18:30N 36°46' W 009°32'814.7
2017-Sep-14 17:59N 36°53' W 009°36'714.9
2017-Sep-14 17:30N 36°60' W 009°38'815.0
2017-Sep-14 17:00N 37°07' W 009°40'915.2
2017-Sep-14 16:24N 37°16' W 009°42'1416.4
2017-Sep-14 15:31N 37°30' W 009°46'016.1
2017-Sep-14 15:30N 37°30' W 009°46'4915.4
2017-Sep-14 12:20N 38°18' W 010°02'616.2
2017-Sep-14 12:00N 38°23' W 010°03'815.9
2017-Sep-14 11:31N 38°31' W 010°05'815.6
2017-Sep-14 11:01N 38°39' W 010°06'815.6
2017-Sep-14 10:31N 38°46' W 010°07'815.7
2017-Sep-14 10:00N 38°54' W 010°07'1016.2
2017-Sep-14 09:25N 39°04' W 010°07'916.7
2017-Sep-14 08:53N 39°13' W 010°07'67014.8
2017-Sep-12 11:42N 49°31' W 004°08'515.1
2017-Sep-12 11:23N 49°33' W 004°01'615.0
2017-Sep-12 11:01N 49°36' W 003°53'714.7
2017-Sep-12 10:31N 49°39' W 003°43'714.3
2017-Sep-12 10:01N 49°43' W 003°33'714.1
2017-Sep-12 09:31N 49°47' W 003°24'714.3
2017-Sep-12 09:01N 49°50' W 003°15'714.5
2017-Sep-12 08:31N 49°54' W 003°05'815.0
2017-Sep-12 08:01N 49°58' W 002°55'815.6
2017-Sep-12 07:30N 49°60' W 002°43'2417.1
2017-Sep-12 06:05N 50°05' W 002°06'218.1
2017-Sep-12 06:00N 50°05' W 002°04'918.1
2017-Sep-12 05:30N 50°06' W 001°50'918.0
2017-Sep-12 05:00N 50°02' W 001°37'917.9
2017-Sep-12 04:30N 49°58' W 001°25'917.7
2017-Sep-12 04:00N 49°54' W 001°13'917.3
2017-Sep-12 03:30N 49°49' W 001°01'  
Track history (hours):
 
Tides and Currents Weather Stations Pressure Air Temp Water Temp Dewpoint Dewpoint Depression Visibility Wind Speed Wind Dir Waves Ship Positions

Andrea

Last reported at 2017-Sep-22 02:00 UTC. Time now 2017-Sep-23 05:57 UTC.
Position N 50°31' E 000°15'.

Length 134 m; draft 7.6 m.

Type: Ship (hazmat cat B). MMSI: 236481000.

Date/timePositionNaut miles runAvg speedWind from/ knotsBaromVisibWave heightAir tempDewpointWater temp
2017-Sep-22 02:00N 50°31' E 000°15'815.3
2017-Sep-22 01:30N 50°34' E 000°26'714.5
2017-Sep-22 01:00N 50°37' E 000°37'714.0
2017-Sep-22 00:30N 50°41' E 000°46'713.5
2017-Sep-22 00:00N 50°45' E 000°54'713.1
2017-Sep-21 23:30N 50°49' E 001°02'713.1
2017-Sep-21 23:00N 50°54' E 001°10'713.4
2017-Sep-21 22:30N 50°58' E 001°17'714.3
2017-Sep-21 22:00N 51°03' E 001°26'816.3
2017-Sep-21 21:30N 51°08' E 001°36'817.0
2017-Sep-21 21:00N 51°14' E 001°46'816.8
2017-Sep-21 20:30N 51°20' E 001°54'816.4
2017-Sep-21 20:00N 51°27' E 002°01'815.7
2017-Sep-21 19:30N 51°33' E 002°09'815.2
2017-Sep-21 19:00N 51°39' E 002°17'714.8
2017-Sep-21 18:30N 51°44' E 002°25'4313.0
2017-Sep-21 15:13N 52°03' E 003°28'313.8
2017-Sep-21 15:00N 52°04' E 003°33'714.2
2017-Sep-21 14:29N 52°04' E 003°44'613.3
2017-Sep-21 14:00N 52°03' E 003°55'611.5
2017-Sep-21 13:31N 51°60' E 004°02'712.9
2017-Sep-21 13:00N 51°57' E 004°11'612.0
2017-Sep-21 12:30N 51°54' E 004°20'4 7.0
2017-Sep-21 12:00N 51°53' E 004°25'0 0.1
2017-Sep-21 11:30N 51°53' E 004°25'0 0.0
2017-Sep-21 11:00N 51°53' E 004°25'0 0.0
2017-Sep-21 10:30N 51°53' E 004°25'0 0.0
2017-Sep-21 10:00N 51°53' E 004°25'0 0.0
2017-Sep-21 09:30N 51°53' E 004°25'0 0.0
2017-Sep-21 09:00N 51°53' E 004°25'0 0.0
2017-Sep-21 08:30N 51°53' E 004°25'0 0.0
2017-Sep-21 08:00N 51°53' E 004°25'0 0.0
2017-Sep-21 07:30N 51°53' E 004°25'0 0.0
2017-Sep-21 07:00N 51°53' E 004°25'0 0.0
2017-Sep-21 06:30N 51°53' E 004°25'0 0.0
2017-Sep-21 06:00N 51°53' E 004°25'0 0.0
2017-Sep-21 05:30N 51°53' E 004°25'0 0.0
2017-Sep-21 05:00N 51°53' E 004°25'0 0.0
2017-Sep-21 04:30N 51°53' E 004°25'0 0.0
2017-Sep-21 04:00N 51°53' E 004°25'0 0.0
2017-Sep-21 03:30N 51°53' E 004°25'0 0.0
2017-Sep-21 03:00N 51°53' E 004°25'0 0.0
2017-Sep-21 02:30N 51°53' E 004°25'0 0.0
2017-Sep-21 02:00N 51°53' E 004°25'0 0.0
2017-Sep-21 01:30N 51°53' E 004°25'0 0.0
2017-Sep-21 01:00N 51°53' E 004°25'0 0.0
2017-Sep-21 00:30N 51°53' E 004°25'0 0.0
2017-Sep-21 00:00N 51°53' E 004°25'0 0.0
2017-Sep-20 23:30N 51°53' E 004°25'0 0.0
2017-Sep-20 23:00N 51°53' E 004°25'0 0.0
2017-Sep-20 22:30N 51°53' E 004°25'0 0.0
2017-Sep-20 22:00N 51°53' E 004°25'0 0.0
2017-Sep-20 21:30N 51°53' E 004°25'0 0.0
2017-Sep-20 21:00N 51°53' E 004°25'0 0.0
2017-Sep-20 20:30N 51°53' E 004°25'1 1.2
2017-Sep-20 20:01N 51°53' E 004°25'4 8.2
2017-Sep-20 19:30N 51°54' E 004°18'611.8
2017-Sep-20 19:00N 51°57' E 004°10'713.2
2017-Sep-20 18:30N 51°60' E 004°00'815.4
2017-Sep-20 18:00N 51°60' E 003°48'713.4
2017-Sep-20 17:30N 51°58' E 003°37'5414.8
2017-Sep-20 13:51N 51°33' E 002°19'514.7
2017-Sep-20 13:30N 51°29' E 002°15'714.4
2017-Sep-20 13:00N 51°23' E 002°11'714.3
2017-Sep-20 12:30N 51°16' E 002°06'917.4
2017-Sep-20 12:01N 51°11' E 001°55'918.8
2017-Sep-20 11:30N 51°05' E 001°43'11216.3
2017-Sep-20 04:37N 50°10' W 000°51'215.5
2017-Sep-20 04:30N 50°09' W 000°54'715.0
2017-Sep-20 04:00N 50°07' W 001°05'714.4
2017-Sep-20 03:30N 50°05' W 001°15'713.7
2017-Sep-20 03:01N 50°04' W 001°26'713.1
2017-Sep-20 02:31N 50°02' W 001°36'612.5
2017-Sep-20 02:00N 50°01' W 001°45'612.3
2017-Sep-20 01:30N 49°59' W 001°54'612.3
2017-Sep-20 01:00N 49°57' W 002°04'2613.8
2017-Sep-19 23:09N 49°50' W 002°42'215.1
2017-Sep-19 23:00N 49°50' W 002°45'815.5
2017-Sep-19 22:30N 49°47' W 002°56'815.9
2017-Sep-19 22:00N 49°43' W 003°07'816.0
2017-Sep-19 21:29N 49°38' W 003°18'1016.2
2017-Sep-19 20:53N 49°33' W 003°30'4916.6
2017-Sep-19 17:57N 49°09' W 004°36'1817.7
2017-Sep-19 16:57N 49°01' W 004°59'818.0
2017-Sep-19 16:30N 48°57' W 005°10'918.3
2017-Sep-19 16:00N 48°53' W 005°22'2017.6
2017-Sep-19 14:53N 48°38' W 005°42'1718.4
2017-Sep-19 13:58N 48°23' W 005°54'55516.6
2017-Sep-18 04:29N 39°35' W 009°50'817.0
2017-Sep-18 04:00N 39°27' W 009°51'917.1
2017-Sep-18 03:30N 39°18' W 009°51'917.2
2017-Sep-18 03:00N 39°10' W 009°51'917.1
2017-Sep-18 02:30N 39°01' W 009°52'817.0
2017-Sep-18 02:00N 38°53' W 009°51'816.8
2017-Sep-18 01:30N 38°44' W 009°51'816.3
2017-Sep-18 01:00N 38°36' W 009°48'816.7
2017-Sep-18 00:30N 38°28' W 009°45'816.3
2017-Sep-18 00:00N 38°20' W 009°42'816.7
2017-Sep-17 23:30N 38°12' W 009°40'816.6
2017-Sep-17 23:00N 38°04' W 009°37'816.4
2017-Sep-17 22:30N 37°56' W 009°35'816.4
2017-Sep-17 22:00N 37°48' W 009°32'917.0
2017-Sep-17 21:30N 37°40' W 009°30'916.6
2017-Sep-17 20:58N 37°32' W 009°27'816.3
2017-Sep-17 20:30N 37°24' W 009°24'816.2
2017-Sep-17 20:00N 37°16' W 009°23'816.2
2017-Sep-17 19:30N 37°08' W 009°22'815.9
2017-Sep-17 19:00N 37°00' W 009°20'1115.2
2017-Sep-17 18:17N 36°50' W 009°14'516.1
2017-Sep-17 18:00N 36°47' W 009°10'1016.3
2017-Sep-17 17:25N 36°43' W 008°59'715.9
2017-Sep-17 16:58N 36°41' W 008°51'1715.4
2017-Sep-17 15:50N 36°25' W 008°42'615.9
2017-Sep-17 15:28N 36°19' W 008°40'1216.0
2017-Sep-17 14:44N 36°08' W 008°35'416.2
2017-Sep-17 14:30N 36°05' W 008°33'816.3
2017-Sep-17 14:00N 35°57' W 008°30'123 3.1
2017-Sep-15 22:32N 35°54' W 005°59'016.1
2017-Sep-15 22:30N 35°55' W 005°58'1415.3
2017-Sep-15 21:37N 35°57' W 005°42'216.4
2017-Sep-15 21:29N 35°57' W 005°39'715.3
2017-Sep-15 21:01N 35°59' W 005°30'713.8
2017-Sep-15 20:30N 36°03' W 005°23'510.8
2017-Sep-15 20:00N 36°08' W 005°25'0 0.1
2017-Sep-15 13:41N 36°08' W 005°25'0 0.0
2017-Sep-15 13:17N 36°08' W 005°25'0 0.0
2017-Sep-15 12:48N 36°08' W 005°25'2 3.0
2017-Sep-15 12:17N 36°08' W 005°23'0 1.3
2017-Sep-15 12:00N 36°08' W 005°24'611.9
2017-Sep-15 11:30N 36°04' W 005°18'0 0.7
2017-Sep-15 11:00N 36°04' W 005°18'1 2.9
2017-Sep-15 10:30N 36°03' W 005°19'2 3.4
2017-Sep-15 10:01N 36°03' W 005°21'2 3.2
2017-Sep-15 09:30N 36°02' W 005°23'810.6
2017-Sep-15 08:47N 35°57' W 005°30'5713.4
2017-Sep-15 04:33N 35°58' W 006°40'115.3
2017-Sep-15 04:30N 35°59' W 006°41'815.1
2017-Sep-15 03:59N 36°01' W 006°50'4514.7
2017-Sep-15 00:55N 36°13' W 007°44'815.1
2017-Sep-15 00:25N 36°15' W 007°53'714.8
2017-Sep-14 23:55N 36°17' W 008°02'714.9
2017-Sep-14 23:27N 36°18' W 008°11'1814.9
2017-Sep-14 22:13N 36°23' W 008°33'1714.7
2017-Sep-14 21:02N 36°27' W 008°54'015.3
2017-Sep-14 21:00N 36°27' W 008°54'714.9
2017-Sep-14 20:30N 36°29' W 009°03'714.5
2017-Sep-14 20:00N 36°32' W 009°11'714.2
2017-Sep-14 19:30N 36°35' W 009°19'814.8
2017-Sep-14 19:00N 36°40' W 009°26'715.0
2017-Sep-14 18:30N 36°46' W 009°32'814.7
2017-Sep-14 17:59N 36°53' W 009°36'714.9
2017-Sep-14 17:30N 36°60' W 009°38'815.0
2017-Sep-14 17:00N 37°07' W 009°40'915.2
2017-Sep-14 16:24N 37°16' W 009°42'1416.4
2017-Sep-14 15:31N 37°30' W 009°46'016.1
2017-Sep-14 15:30N 37°30' W 009°46'4915.4
2017-Sep-14 12:20N 38°18' W 010°02'616.2
2017-Sep-14 12:00N 38°23' W 010°03'815.9
2017-Sep-14 11:31N 38°31' W 010°05'815.6
2017-Sep-14 11:01N 38°39' W 010°06'815.6
2017-Sep-14 10:31N 38°46' W 010°07'815.7
2017-Sep-14 10:00N 38°54' W 010°07'1016.2
2017-Sep-14 09:25N 39°04' W 010°07'916.7
2017-Sep-14 08:53N 39°13' W 010°07'67014.8
2017-Sep-12 11:42N 49°31' W 004°08'515.1
2017-Sep-12 11:23N 49°33' W 004°01'615.0
2017-Sep-12 11:01N 49°36' W 003°53'714.7
2017-Sep-12 10:31N 49°39' W 003°43'714.3
2017-Sep-12 10:01N 49°43' W 003°33'714.1
2017-Sep-12 09:31N 49°47' W 003°24'714.3
2017-Sep-12 09:01N 49°50' W 003°15'714.5
2017-Sep-12 08:31N 49°54' W 003°05'815.0
2017-Sep-12 08:01N 49°58' W 002°55'815.6
2017-Sep-12 07:30N 49°60' W 002°43'2417.1
2017-Sep-12 06:05N 50°05' W 002°06'218.1
2017-Sep-12 06:00N 50°05' W 002°04'918.1
2017-Sep-12 05:30N 50°06' W 001°50'918.0
2017-Sep-12 05:00N 50°02' W 001°37'917.9
2017-Sep-12 04:30N 49°58' W 001°25'917.7
2017-Sep-12 04:00N 49°54' W 001°13'917.3
2017-Sep-12 03:30N 49°49' W 001°01'  

Dump ship's entire track history